Time;durP1;ratioP1;P1;durP2;ratioP2;P2;SDS_P1;SDS_P2;PMS_P1;PMS_P2;Temp;Humidity;BMP_temperature;BMP_pressure;BME280_temperature;BME280_humidity;BME280_pressure;Samples;Min_cycle;Max_cycle;Signal;HPM_P1;HPM_P2
2022/07/16 00:03:44;;;;;;;0.32;0.28;;;;;;;12.32;100.00;101681.28;5059159;28;20457;-56
2022/07/16 00:06:09;;;;;;;0.40;0.40;;;;;;;12.23;100.00;101677.81;5051145;28;21422;-56
2022/07/16 00:08:35;;;;;;;0.55;0.52;;;;;;;12.17;100.00;101677.69;5058125;28;20029;-54
2022/07/16 00:11:00;;;;;;;2.58;0.20;;;;;;;12.14;100.00;101672.72;5058267;28;20092;-53
2022/07/16 00:13:25;;;;;;;0.28;0.03;;;;;;;12.06;100.00;101670.09;5061126;28;20116;-54
2022/07/16 00:15:51;;;;;;;3.00;0.50;;;;;;;11.97;100.00;101671.94;5055785;28;20032;-55
2022/07/16 00:21:00;;;;;;;0.30;0.20;;;;;;;11.88;100.00;101687.09;5058000;28;20392;-48
2022/07/16 00:23:26;;;;;;;0.98;0.40;;;;;;;11.78;100.00;101699.72;5059872;28;20107;-54
2022/07/16 00:25:51;;;;;;;0.40;0.30;;;;;;;11.66;100.00;101696.56;5059412;28;20525;-55
2022/07/16 00:28:16;;;;;;;1.63;0.20;;;;;;;11.53;100.00;101691.75;5057784;28;20037;-53
2022/07/16 00:30:42;;;;;;;0.20;0.20;;;;;;;11.43;100.00;101693.75;5047592;28;20157;-51
2022/07/16 00:33:07;;;;;;;1.38;0.10;;;;;;;11.36;100.00;101690.13;5067931;28;20025;-52
2022/07/16 00:35:32;;;;;;;0.60;0.22;;;;;;;11.35;100.00;101691.09;5050043;28;20052;-52
2022/07/16 00:37:58;;;;;;;0.88;0.25;;;;;;;11.31;100.00;101697.78;5054928;28;20044;-52
2022/07/16 00:40:23;;;;;;;0.30;0.30;;;;;;;11.36;100.00;101700.75;5060447;28;20024;-55
2022/07/16 00:42:48;;;;;;;0.65;0.20;;;;;;;11.37;100.00;101702.41;5050252;28;20025;-56
2022/07/16 00:45:14;;;;;;;0.20;0.20;;;;;;;11.43;100.00;101701.72;5064030;28;20072;-53
2022/07/16 00:47:39;;;;;;;0.20;0.20;;;;;;;11.52;100.00;101690.13;5058775;28;20414;-55
2022/07/16 00:50:05;;;;;;;0.40;0.40;;;;;;;11.55;100.00;101695.09;5058573;28;20029;-53
2022/07/16 00:52:35;;;;;;;1.80;0.40;;;;;;;11.53;100.00;101701.56;5050613;28;20037;-53
2022/07/16 00:55:00;;;;;;;1.38;0.35;;;;;;;11.50;100.00;101696.59;5054893;28;20028;-56
2022/07/16 00:57:25;;;;;;;0.20;0.20;;;;;;;11.49;100.00;101701.06;5047809;28;20039;-55
2022/07/16 00:59:51;;;;;;;0.50;0.30;;;;;;;11.47;100.00;101705.72;5064692;28;20044;-54
2022/07/16 01:02:16;;;;;;;0.40;0.40;;;;;;;11.35;100.00;101696.41;5057235;28;20035;-55
2022/07/16 01:04:42;;;;;;;1.55;0.55;;;;;;;11.20;100.00;101696.25;5016302;28;20418;-52
2022/07/16 01:07:08;;;;;;;0.73;0.30;;;;;;;11.08;100.00;101689.63;5053978;28;20029;-55
2022/07/16 01:09:34;;;;;;;1.80;0.20;;;;;;;10.99;100.00;101698.56;5052428;28;20458;-51
2022/07/16 01:12:00;;;;;;;0.40;0.10;;;;;;;10.91;100.00;101699.38;5061224;28;20082;-52
2022/07/16 01:14:26;;;;;;;2.58;0.30;;;;;;;10.82;100.00;101695.88;5048839;28;20044;-56
2022/07/16 01:16:52;;;;;;;0.50;0.50;;;;;;;10.79;100.00;101693.56;5050150;28;20500;-56
2022/07/16 01:19:17;;;;;;;2.38;0.10;;;;;;;10.80;100.00;101694.41;5061762;28;20068;-52
2022/07/16 01:21:43;;;;;;;0.10;0.10;;;;;;;10.80;100.00;101699.69;5063760;28;20032;-54
2022/07/16 01:24:08;;;;;;;1.95;0.55;;;;;;;10.81;100.00;101701.34;5057091;28;20458;-54
2022/07/16 01:26:34;;;;;;;1.48;0.45;;;;;;;10.83;100.00;101710.81;5055843;28;20020;-51
2022/07/16 01:28:59;;;;;;;1.00;0.17;;;;;;;10.85;100.00;101705.34;5054466;28;20123;-54
2022/07/16 01:31:24;;;;;;;0.30;0.10;;;;;;;10.87;100.00;101703.38;5039294;28;20481;-56
2022/07/16 01:36:34;;;;;;;0.38;0.20;;;;;;;11.01;100.00;101708.00;5058231;28;20044;-56
2022/07/16 01:38:59;;;;;;;0.22;0.20;;;;;;;10.95;100.00;101714.00;5063176;28;20473;-55
2022/07/16 01:41:25;;;;;;;0.75;0.05;;;;;;;10.92;100.00;101714.31;5062501;28;20036;-56
2022/07/16 01:43:50;;;;;;;1.45;0.20;;;;;;;10.95;100.00;101718.47;5051869;28;20114;-56
2022/07/16 01:46:15;;;;;;;0.45;0.30;;;;;;;10.99;100.00;101710.00;5051546;28;20060;-55
2022/07/16 01:48:41;;;;;;;0.65;0.57;;;;;;;10.95;100.00;101713.16;5055380;28;20032;-54
2022/07/16 01:51:06;;;;;;;0.10;0.10;;;;;;;10.85;100.00;101713.31;5056518;28;20036;-56
2022/07/16 01:53:32;;;;;;;0.82;0.57;;;;;;;10.80;100.00;101707.66;5063754;28;20047;-56
2022/07/16 01:55:58;;;;;;;1.17;0.17;;;;;;;10.75;100.00;101712.63;5053008;28;20086;-55
2022/07/16 01:58:24;;;;;;;2.42;0.10;;;;;;;10.70;100.00;101721.06;5052794;28;20025;-55
2022/07/16 02:00:50;;;;;;;0.30;0.28;;;;;;;10.68;100.00;101717.72;5057280;28;20040;-52
2022/07/16 02:03:15;;;;;;;1.38;0.20;;;;;;;10.62;100.00;101724.50;5051562;28;20105;-55
2022/07/16 02:05:41;;;;;;;0.22;0.22;;;;;;;10.48;100.00;101727.78;5071984;28;20075;-55
2022/07/16 02:08:07;;;;;;;0.30;0.10;;;;;;;10.36;100.00;101734.38;5053888;28;20114;-55
2022/07/16 02:10:33;;;;;;;0.15;0.15;;;;;;;10.28;100.00;101727.19;5055076;28;20024;-53
2022/07/16 02:12:59;;;;;;;0.98;0.20;;;;;;;10.18;100.00;101716.69;5041610;28;20040;-54
2022/07/16 02:15:24;;;;;;;1.25;0.55;;;;;;;10.08;100.00;101721.25;5060056;28;20048;-55
2022/07/16 02:17:50;;;;;;;0.40;0.00;;;;;;;9.97;100.00;101719.72;5054538;28;20073;-56
2022/07/16 02:20:15;;;;;;;0.55;0.10;;;;;;;9.89;100.00;101722.31;5048188;28;20450;-56
2022/07/16 02:22:41;;;;;;;0.32;0.30;;;;;;;9.78;100.00;101719.91;5052863;28;20040;-55
2022/07/16 02:25:08;;;;;;;0.20;0.17;;;;;;;9.70;100.00;101717.22;5051025;28;20028;-52
2022/07/16 02:27:33;;;;;;;0.20;0.20;;;;;;;9.68;100.00;101724.47;5059474;28;20433;-56
2022/07/16 02:29:59;;;;;;;1.00;0.55;;;;;;;9.69;100.00;101726.97;5056745;28;20032;-55
2022/07/16 02:32:25;;;;;;;2.38;1.10;;;;;;;9.63;100.00;101722.31;5045469;28;20103;-51
2022/07/16 02:34:51;;;;;;;0.60;0.20;;;;;;;9.61;100.00;101735.69;5057641;28;20177;-57
2022/07/16 02:37:16;;;;;;;0.73;0.20;;;;;;;9.60;100.00;101727.91;5060488;28;20045;-55
2022/07/16 02:39:42;;;;;;;0.52;0.35;;;;;;;9.58;100.00;101732.53;5059018;28;20037;-54
2022/07/16 02:42:07;;;;;;;1.90;0.47;;;;;;;9.54;100.00;101733.81;5058892;28;20407;-54
2022/07/16 02:44:32;;;;;;;0.82;0.32;;;;;;;9.53;100.00;101740.94;5063369;28;20033;-52
2022/07/16 02:46:58;;;;;;;1.73;0.28;;;;;;;9.51;100.00;101740.25;5048171;28;20385;-56
2022/07/16 02:49:23;;;;;;;0.20;0.20;;;;;;;9.50;100.00;101737.75;5057248;28;20028;-55
2022/07/16 02:51:48;;;;;;;0.75;0.50;;;;;;;9.45;100.00;101732.06;5055991;28;20473;-55
2022/07/16 02:54:14;;;;;;;0.55;0.22;;;;;;;9.41;100.00;101733.38;5059880;28;20047;-54
2022/07/16 02:56:39;;;;;;;0.43;0.40;;;;;;;9.37;100.00;101741.63;5056631;28;20055;-54
2022/07/16 02:59:05;;;;;;;0.30;0.30;;;;;;;9.37;100.00;101746.06;5068657;28;20089;-53
2022/07/16 03:01:30;;;;;;;0.30;0.30;;;;;;;9.39;100.00;101758.16;5034856;28;20486;-53
2022/07/16 03:03:55;;;;;;;0.20;0.20;;;;;;;9.43;100.00;101760.53;5050469;28;20025;-50
2022/07/16 03:06:21;;;;;;;1.35;0.10;;;;;;;9.45;100.00;101761.19;5063070;28;20505;-53
2022/07/16 03:08:47;;;;;;;1.60;0.45;;;;;;;9.38;100.00;101758.34;5055472;28;20040;-53
2022/07/16 03:11:12;;;;;;;0.65;0.52;;;;;;;9.27;100.00;101756.75;5055055;28;20025;-51
2022/07/16 03:13:38;;;;;;;2.92;0.82;;;;;;;9.22;100.00;101750.25;5044553;28;20462;-53
2022/07/16 03:16:04;;;;;;;0.28;0.20;;;;;;;9.17;100.00;101756.00;5051060;28;20025;-55
2022/07/16 03:18:29;;;;;;;2.92;0.32;;;;;;;9.14;100.00;101757.13;5046138;28;20033;-55
2022/07/16 03:20:55;;;;;;;0.28;0.28;;;;;;;9.18;100.00;101765.59;5045917;28;20033;-53
2022/07/16 03:23:20;;;;;;;0.25;0.17;;;;;;;9.16;100.00;101759.59;5059818;28;20037;-55
2022/07/16 03:25:46;;;;;;;1.00;0.50;;;;;;;9.09;100.00;101759.41;5070183;28;20520;-52
2022/07/16 03:28:11;;;;;;;2.38;0.20;;;;;;;9.03;100.00;101753.84;5046817;28;20123;-56
2022/07/16 03:30:36;;;;;;;0.60;0.35;;;;;;;8.99;100.00;101749.88;5059337;28;20047;-53
2022/07/16 03:33:03;;;;;;;1.60;0.40;;;;;;;8.98;100.00;101746.38;5059568;28;20032;-51
2022/07/16 03:35:29;;;;;;;0.50;0.25;;;;;;;8.98;100.00;101743.72;5058142;28;20029;-50
2022/07/16 03:40:38;;;;;;;0.90;0.90;;;;;;;8.92;100.00;101742.50;5046322;28;20500;-55
2022/07/16 03:43:04;;;;;;;0.40;0.40;;;;;;;8.84;100.00;101742.44;5061255;28;20025;-48
2022/07/16 03:45:30;;;;;;;0.30;0.20;;;;;;;8.72;100.00;101743.59;5058870;28;20137;-55
2022/07/16 03:47:55;;;;;;;0.43;0.40;;;;;;;8.61;100.00;101738.53;5057269;28;20491;-54
2022/07/16 03:50:21;;;;;;;0.38;0.38;;;;;;;8.58;100.00;101738.81;5051135;28;20037;-54
2022/07/16 03:52:46;;;;;;;0.40;0.38;;;;;;;8.55;100.00;101734.66;5047170;28;20029;-49
2022/07/16 03:55:12;;;;;;;0.55;0.40;;;;;;;8.51;100.00;101731.47;5047732;28;20099;-54
2022/07/16 03:57:38;;;;;;;0.10;0.10;;;;;;;8.47;100.00;101732.75;5057257;28;20040;-56
2022/07/16 04:00:04;;;;;;;0.50;0.50;;;;;;;8.42;100.00;101727.06;5059124;28;20436;-54
2022/07/16 04:02:30;;;;;;;0.38;0.38;;;;;;;8.36;100.00;101730.25;5049972;28;20365;-55
2022/07/16 04:04:56;;;;;;;0.90;0.30;;;;;;;8.34;100.00;101732.22;5056237;28;20037;-56
2022/07/16 04:07:21;;;;;;;0.47;0.20;;;;;;;8.32;100.00;101736.81;5056414;28;20398;-56
2022/07/16 04:09:47;;;;;;;0.70;0.40;;;;;;;8.30;100.00;101733.50;5067527;28;20055;-55
2022/07/16 04:12:12;;;;;;;0.43;0.43;;;;;;;8.32;100.00;101738.66;5060065;28;20040;-54
2022/07/16 04:14:37;;;;;;;0.40;0.40;;;;;;;8.34;100.00;101739.31;5057447;28;20323;-52
2022/07/16 04:17:03;;;;;;;0.93;0.30;;;;;;;8.35;100.00;101733.88;5059801;28;20033;-54
2022/07/16 04:19:28;;;;;;;0.50;0.50;;;;;;;8.34;100.00;101739.31;5064238;28;20040;-53
2022/07/16 04:21:53;;;;;;;0.93;0.47;;;;;;;8.31;100.00;101743.06;5053559;28;20025;-56
2022/07/16 04:24:19;;;;;;;1.17;0.43;;;;;;;8.31;100.00;101751.00;5051881;28;20382;-52
2022/07/16 04:26:44;;;;;;;0.22;0.22;;;;;;;8.34;100.00;101740.16;5047922;28;20103;-54
2022/07/16 04:29:09;;;;;;;0.43;0.40;;;;;;;8.39;100.00;101745.88;5056118;28;20033;-58
2022/07/16 04:31:35;;;;;;;3.60;0.70;;;;;;;8.42;100.00;101736.81;5053172;28;20432;-56
2022/07/16 04:34:00;;;;;;;0.63;0.38;;;;;;;8.40;100.00;101729.03;5048338;28;20047;-56
2022/07/16 04:36:25;;;;;;;0.40;0.35;;;;;;;8.33;100.00;101727.09;5050877;28;20065;-52
2022/07/16 04:38:51;;;;;;;0.50;0.50;;;;;;;8.28;100.00;101730.16;5055033;28;20048;-54
2022/07/16 04:41:16;;;;;;;0.57;0.52;;;;;;;8.21;100.00;101729.91;5039124;28;20044;-55
2022/07/16 04:43:41;;;;;;;0.55;0.40;;;;;;;8.17;100.00;101725.06;5057699;28;20550;-56
2022/07/16 04:46:07;;;;;;;0.68;0.68;;;;;;;8.16;100.00;101744.50;5067106;28;20029;-53
2022/07/16 04:48:32;;;;;;;0.90;0.40;;;;;;;8.19;100.00;101747.72;5054404;28;20053;-56
2022/07/16 04:50:58;;;;;;;1.10;0.63;;;;;;;8.27;100.00;101744.34;5070312;28;20115;-55
2022/07/16 04:53:23;;;;;;;0.85;0.75;;;;;;;8.36;100.00;101747.94;5051633;28;20029;-56
2022/07/16 04:55:48;;;;;;;1.02;0.45;;;;;;;8.41;100.00;101746.53;5054518;28;20413;-56
2022/07/16 04:58:14;;;;;;;1.13;0.77;;;;;;;8.41;100.00;101745.72;5062997;28;20032;-56
2022/07/16 05:00:40;;;;;;;0.73;0.50;;;;;;;8.41;100.00;101751.00;5054154;28;20100;-56
2022/07/16 05:03:06;;;;;;;2.20;0.63;;;;;;;8.39;100.00;101748.53;5032816;28;20056;-54
2022/07/16 05:05:34;;;;;;;2.00;0.65;;;;;;;8.32;100.00;101752.69;5062226;28;20043;-50
2022/07/16 05:08:01;;;;;;;0.88;0.30;;;;;;;8.25;100.00;101762.97;5050678;28;20032;-50
2022/07/16 05:10:28;;;;;;;0.50;0.50;;;;;;;8.20;100.00;101764.41;5061374;28;20029;-56
2022/07/16 05:12:54;;;;;;;0.73;0.65;;;;;;;8.22;100.00;101765.09;5054709;28;20033;-54
2022/07/16 05:15:20;;;;;;;0.43;0.43;;;;;;;8.26;100.00;101763.81;5064907;28;20063;-52
2022/07/16 05:17:45;;;;;;;1.75;0.22;;;;;;;8.36;100.00;101774.34;5057677;28;20116;-56
2022/07/16 05:20:11;;;;;;;1.10;0.75;;;;;;;8.44;100.00;101764.78;5063028;28;20713;-56
2022/07/16 05:22:37;;;;;;;10.52;0.80;;;;;;;8.51;100.00;101768.47;5053899;28;20044;-56
2022/07/16 05:25:04;;;;;;;0.30;0.30;;;;;;;8.56;100.00;101769.88;5064592;28;20329;-56
2022/07/16 05:27:30;;;;;;;2.63;0.60;;;;;;;8.64;100.00;101775.25;5052839;28;20032;-53
2022/07/16 05:29:55;;;;;;;0.75;0.57;;;;;;;8.75;100.00;101782.97;5075797;28;20393;-56
2022/07/16 05:32:20;;;;;;;2.63;0.93;;;;;;;8.86;100.00;101789.91;5068382;28;20094;-56
2022/07/16 05:34:46;;;;;;;0.63;0.50;;;;;;;8.90;100.00;101785.97;5061029;28;20021;-56
2022/07/16 05:37:11;;;;;;;3.63;1.55;;;;;;;8.93;100.00;101778.56;5047696;28;20032;-56
2022/07/16 05:39:37;;;;;;;1.75;0.75;;;;;;;8.99;100.00;101784.25;5054997;28;20032;-55
2022/07/16 05:42:02;;;;;;;0.57;0.38;;;;;;;9.06;100.00;101786.16;5055524;28;20029;-55
2022/07/16 05:44:27;;;;;;;0.70;0.35;;;;;;;9.23;100.00;101787.16;5062327;28;20043;-56
2022/07/16 05:46:53;;;;;;;0.57;0.40;;;;;;;9.35;100.00;101782.47;5040461;28;20036;-56
2022/07/16 05:49:18;;;;;;;0.50;0.50;;;;;;;9.50;100.00;101785.41;5042141;28;20446;-53
2022/07/16 05:51:44;;;;;;;3.83;0.65;;;;;;;9.63;100.00;101785.88;5025632;28;20488;-54
2022/07/16 05:54:09;;;;;;;0.50;0.50;;;;;;;9.75;100.00;101797.03;5053945;28;20029;-53
2022/07/16 05:56:35;;;;;;;0.35;0.35;;;;;;;9.88;100.00;101796.66;5058493;28;20414;-56
2022/07/16 05:59:02;;;;;;;0.65;0.65;;;;;;;9.99;100.00;101786.63;5037537;28;20387;-57
2022/07/16 06:01:29;;;;;;;0.38;0.38;;;;;;;10.05;100.00;101786.00;5048806;28;20033;-57
2022/07/16 06:03:54;;;;;;;0.60;0.52;;;;;;;10.11;100.00;101786.38;5052203;28;20079;-57
2022/07/16 06:06:20;;;;;;;0.85;0.75;;;;;;;10.18;100.00;101784.75;5052828;28;20485;-53
2022/07/16 06:08:45;;;;;;;1.00;0.80;;;;;;;10.22;100.00;101786.94;5046824;28;20034;-55
2022/07/16 06:11:11;;;;;;;2.65;0.60;;;;;;;10.33;100.00;101788.53;5052293;28;20036;-57
2022/07/16 06:13:36;;;;;;;2.53;0.60;;;;;;;10.46;100.00;101785.44;5055761;28;20040;-54
2022/07/16 06:16:02;;;;;;;1.75;0.95;;;;;;;10.55;100.00;101787.13;5040392;28;20025;-52
2022/07/16 06:18:27;;;;;;;1.50;0.50;;;;;;;10.73;100.00;101794.19;5034233;28;20041;-56
2022/07/16 06:20:53;;;;;;;0.82;0.82;;;;;;;10.89;100.00;101786.25;5052988;28;20453;-55
2022/07/16 06:23:18;;;;;;;1.33;0.60;;;;;;;11.03;100.00;101793.63;5056292;28;20037;-57
2022/07/16 06:25:44;;;;;;;1.90;0.70;;;;;;;11.24;100.00;101790.50;5056336;28;20032;-54
2022/07/16 06:28:09;;;;;;;0.60;0.60;;;;;;;11.48;100.00;101796.84;5049783;28;20476;-53
2022/07/16 06:30:35;;;;;;;0.75;0.75;;;;;;;11.78;100.00;101800.69;5061164;28;20028;-56
2022/07/16 06:33:00;;;;;;;3.83;0.98;;;;;;;12.00;100.00;101812.47;5040072;28;20024;-53
2022/07/16 06:35:26;;;;;;;1.42;0.88;;;;;;;12.10;100.00;101812.31;5055426;28;20025;-55
2022/07/16 06:37:51;;;;;;;1.08;0.60;;;;;;;12.11;100.00;101806.00;5048111;28;20028;-55
2022/07/16 06:40:17;;;;;;;1.50;0.90;;;;;;;12.14;100.00;101801.16;5058860;28;20039;-56
2022/07/16 06:42:43;;;;;;;2.35;0.52;;;;;;;12.23;100.00;101805.44;5053814;28;20073;-52
2022/07/16 06:45:09;;;;;;;1.83;0.90;;;;;;;12.36;100.00;101804.94;5059231;28;20452;-56
2022/07/16 06:47:35;;;;;;;1.67;0.47;;;;;;;12.71;100.00;101805.50;5054587;28;20055;-54
2022/07/16 06:50:00;;;;;;;1.70;0.50;;;;;;;12.99;100.00;101797.88;5036544;28;20030;-52
2022/07/16 06:52:26;;;;;;;2.97;1.13;;;;;;;13.16;100.00;101803.91;5052838;28;20081;-56
2022/07/16 06:54:51;;;;;;;0.52;0.35;;;;;;;13.26;100.00;101801.88;5061274;28;20044;-55
2022/07/16 06:57:18;;;;;;;2.40;1.17;;;;;;;13.44;100.00;101800.78;5054434;28;20028;-57
2022/07/16 06:59:43;;;;;;;4.07;1.27;;;;;;;13.56;100.00;101791.38;5059035;28;20504;-57
2022/07/16 07:02:09;;;;;;;0.35;0.35;;;;;;;13.70;100.00;101800.41;5054252;28;20424;-52
2022/07/16 07:04:34;;;;;;;0.30;0.30;;;;;;;13.94;100.00;101786.88;5056974;28;20116;-52
2022/07/16 07:07:00;;;;;;;1.40;0.32;;;;;;;14.15;100.00;101796.00;5054304;28;20052;-57
2022/07/16 07:09:25;;;;;;;0.63;0.30;;;;;;;14.22;100.00;101786.25;5056376;28;20509;-54
2022/07/16 07:11:51;;;;;;;2.60;0.25;;;;;;;14.41;100.00;101787.56;5055396;28;20909;-57
2022/07/16 07:14:16;;;;;;;0.60;0.52;;;;;;;14.66;100.00;101792.63;5051103;28;20032;-57
2022/07/16 07:16:41;;;;;;;0.35;0.35;;;;;;;14.86;100.00;101792.88;5046093;28;20094;-57
2022/07/16 07:19:07;;;;;;;0.65;0.20;;;;;;;15.00;100.00;101795.50;5054755;28;20025;-54
2022/07/16 07:21:32;;;;;;;0.82;0.57;;;;;;;15.11;100.00;101801.38;5054902;28;20063;-58
2022/07/16 07:23:58;;;;;;;0.63;0.30;;;;;;;15.15;100.00;101798.13;5053335;28;20120;-55
2022/07/16 07:26:24;;;;;;;0.40;0.20;;;;;;;15.24;100.00;101801.50;5050030;28;20039;-56
2022/07/16 07:28:49;;;;;;;0.52;0.30;;;;;;;15.39;100.00;101804.97;5050026;28;20036;-56
2022/07/16 07:31:15;;;;;;;4.00;1.05;;;;;;;15.58;100.00;101806.16;5040379;28;20029;-59
2022/07/16 07:33:40;;;;;;;0.20;0.20;;;;;;;15.75;100.00;101806.75;5052122;28;20021;-56
2022/07/16 07:36:06;;;;;;;0.75;0.32;;;;;;;15.83;100.00;101795.09;5034772;28;20128;-57
2022/07/16 07:38:31;;;;;;;0.98;0.20;;;;;;;15.90;100.00;101786.09;5054789;28;20039;-56
2022/07/16 07:40:57;;;;;;;0.45;0.30;;;;;;;16.03;100.00;101789.88;5033499;28;20121;-57
2022/07/16 07:43:23;;;;;;;1.60;0.35;;;;;;;16.20;100.00;101798.44;5045767;28;20483;-57
2022/07/16 07:45:49;;;;;;;0.70;0.15;;;;;;;16.30;100.00;101798.91;5048457;28;20044;-63
2022/07/16 07:48:15;;;;;;;0.08;0.08;;;;;;;16.46;100.00;101792.41;5056004;28;20032;-58
2022/07/16 07:50:40;;;;;;;0.85;0.17;;;;;;;16.71;100.00;101788.22;5048839;28;20033;-61
2022/07/16 07:53:06;;;;;;;0.15;0.13;;;;;;;16.90;100.00;101781.28;5048243;28;20040;-59
2022/07/16 07:55:32;;;;;;;0.80;0.38;;;;;;;17.05;100.00;101778.47;5050452;28;20037;-57
2022/07/16 07:57:58;;;;;;;0.82;0.10;;;;;;;17.16;100.00;101779.72;5032636;28;20087;-66
2022/07/16 08:00:23;;;;;;;0.82;0.30;;;;;;;17.19;100.00;101780.16;5044932;28;20033;-55
2022/07/16 08:02:49;;;;;;;0.32;0.32;;;;;;;17.34;100.00;101776.44;5058587;28;20029;-58
2022/07/16 08:05:15;;;;;;;3.00;0.55;;;;;;;17.54;100.00;101779.97;5040497;28;20029;-57
2022/07/16 08:07:41;;;;;;;0.57;0.20;;;;;;;17.66;100.00;101781.03;5058466;28;20040;-64
2022/07/16 08:10:08;;;;;;;0.90;0.38;;;;;;;17.72;100.00;101775.88;5032960;28;20032;-69
2022/07/16 08:12:34;;;;;;;1.13;0.20;;;;;;;17.64;100.00;101776.91;5053158;28;20032;-64
2022/07/16 08:14:59;;;;;;;0.35;0.13;;;;;;;17.60;100.00;101776.47;5035230;28;20051;-69
2022/07/16 08:17:25;;;;;;;0.30;0.20;;;;;;;17.89;100.00;101774.44;5055356;28;20290;-63
2022/07/16 08:19:51;;;;;;;0.57;0.10;;;;;;;18.09;100.00;101775.22;5054763;28;20044;-60
2022/07/16 08:22:16;;;;;;;3.50;0.80;;;;;;;18.21;100.00;101763.84;5055404;28;20458;-65
2022/07/16 08:27:26;;;;;;;0.85;0.20;;;;;;;18.46;100.00;101764.00;5057579;28;20031;-64
2022/07/16 08:29:51;;;;;;;0.40;0.10;;;;;;;18.59;100.00;101763.13;5049523;28;20037;-65
2022/07/16 08:32:17;;;;;;;0.50;0.10;;;;;;;18.71;100.00;101761.38;5050647;28;20041;-64
2022/07/16 08:34:43;;;;;;;0.80;0.15;;;;;;;18.82;100.00;101757.22;5054855;28;20060;-70
2022/07/16 08:37:09;;;;;;;0.90;0.22;;;;;;;18.85;100.00;101760.31;5055779;28;20472;-59
2022/07/16 08:39:38;;;;;;;0.95;0.20;;;;;;;18.98;100.00;101762.13;5052831;28;20055;-68
2022/07/16 08:42:04;;;;;;;0.20;0.08;;;;;;;18.85;100.00;101771.06;5036124;28;20029;-68
2022/07/16 08:44:31;;;;;;;3.42;0.95;;;;;;;18.67;100.00;101760.19;5062510;28;20583;-70
2022/07/16 08:46:57;;;;;;;1.88;0.00;;;;;;;18.80;100.00;101765.53;5051783;28;20484;-62
2022/07/16 08:49:24;;;;;;;1.25;0.30;;;;;;;19.16;100.00;101766.75;5057769;28;20036;-64
2022/07/16 08:51:49;;;;;;;0.20;0.20;;;;;;;19.31;100.00;101771.81;5059992;28;20039;-67
2022/07/16 08:54:20;;;;;;;0.75;0.30;;;;;;;19.43;100.00;101764.69;5060311;28;20397;-70
2022/07/16 08:56:45;;;;;;;1.13;0.23;;;;;;;19.38;100.00;101761.84;5058602;28;20037;-70
2022/07/16 08:59:13;;;;;;;0.52;0.13;;;;;;;19.45;100.00;101759.94;5048679;28;20304;-68
2022/07/16 09:01:38;;;;;;;0.60;0.10;;;;;;;19.42;100.00;101759.56;5061627;28;20033;-65
2022/07/16 09:04:04;;;;;;;0.10;0.10;;;;;;;19.29;100.00;101760.47;5051257;28;20042;-70
2022/07/16 09:06:30;;;;;;;1.45;0.25;;;;;;;19.38;100.00;101757.28;5055770;28;20064;-68
2022/07/16 09:08:56;;;;;;;2.63;0.20;;;;;;;19.64;100.00;101762.69;5041993;28;20024;-68
2022/07/16 09:11:29;;;;;;;0.10;0.10;;;;;;;20.01;100.00;101760.94;5051166;28;20588;-67
2022/07/16 09:14:08;;;;;;;2.22;0.65;;;;;;;20.27;100.00;101760.63;5054967;28;20036;-68
2022/07/16 09:16:38;;;;;;;0.20;0.10;;;;;;;20.59;100.00;101754.28;5051401;28;20028;-59
2022/07/16 09:19:10;;;;;;;1.00;0.25;;;;;;;20.80;100.00;101745.69;5049215;28;20457;-66
2022/07/16 09:21:37;;;;;;;3.42;0.20;;;;;;;20.91;100.00;101749.50;5043486;28;20028;-61
2022/07/16 09:24:04;;;;;;;0.63;0.10;;;;;;;21.23;100.00;101746.53;5059889;28;20113;-63
2022/07/16 09:26:29;;;;;;;0.50;0.50;;;;;;;21.38;100.00;101757.75;5050200;28;20028;-70
2022/07/16 09:28:59;;;;;;;0.63;0.22;;;;;;;21.40;100.00;101747.56;5051047;28;20020;-70
2022/07/16 09:31:39;;;;;;;3.40;0.30;;;;;;;21.32;100.00;101750.53;5041819;28;20458;-72
2022/07/16 09:34:15;;;;;;;3.63;0.90;;;;;;;21.08;100.00;101746.97;5048562;28;20040;-70
2022/07/16 09:36:56;;;;;;;1.27;0.63;;;;;;;21.17;100.00;101748.28;5043462;28;20025;-64
2022/07/16 09:39:21;;;;;;;0.20;0.10;;;;;;;21.35;100.00;101745.50;5060862;28;20028;-70
2022/07/16 09:41:47;;;;;;;0.63;0.40;;;;;;;21.52;100.00;101742.16;5055048;28;20035;-58
2022/07/16 09:44:27;;;;;;;0.73;0.03;;;;;;;21.85;100.00;101740.75;5062392;28;20173;-59
2022/07/16 09:47:22;;;;;;;0.40;0.10;;;;;;;21.76;100.00;101754.63;5051664;28;20145;-70
2022/07/16 09:49:53;;;;;;;0.88;0.15;;;;;;;;;;5010312;28;20047;-69
2022/07/16 09:52:34;;;;;;;0.17;0.10;;;;;;;21.70;100.00;101752.03;5064983;28;20033;-70
2022/07/16 09:54:59;;;;;;;0.10;0.10;;;;;;;22.02;100.00;101765.16;5054399;28;20431;-62
2022/07/16 09:57:27;;;;;;;1.55;0.20;;;;;;;22.24;100.00;101758.09;5056710;28;20631;-59
2022/07/16 09:59:54;;;;;;;0.60;0.00;;;;;;;22.30;100.00;101762.56;5059155;28;20038;-64
2022/07/16 10:02:20;;;;;;;0.10;0.10;;;;;;;22.46;100.00;101760.16;5068476;28;20044;-70
2022/07/16 10:04:46;;;;;;;0.60;0.47;;;;;;;22.38;100.00;101764.91;5053938;28;20056;-71
2022/07/16 10:07:11;;;;;;;0.47;0.17;;;;;;;22.38;100.00;101759.50;5058257;28;20040;-61
2022/07/16 10:09:37;;;;;;;1.00;0.08;;;;;;;22.40;100.00;101761.94;5067618;28;20030;-70
2022/07/16 10:12:18;;;;;;;0.10;0.10;;;;;;;22.53;100.00;101753.56;5046215;28;20055;-53
2022/07/16 10:14:54;;;;;;;0.20;0.08;;;;;;;22.95;100.00;101757.84;5048915;28;20402;-64
2022/07/16 10:17:22;;;;;;;0.13;0.03;;;;;;;23.02;100.00;101748.56;5054098;28;20312;-65
2022/07/16 10:20:00;;;;;;;0.25;0.25;;;;;;;22.81;100.00;101752.75;5054059;28;20355;-71
2022/07/16 10:22:31;;;;;;;2.22;0.30;;;;;;;22.93;100.00;101750.00;5058603;28;20111;-48
2022/07/16 10:24:57;;;;;;;5.85;0.43;;;;;;;23.06;100.00;101755.13;5055978;28;20043;-61
2022/07/16 10:27:30;;;;;;;0.60;0.20;;;;;;;22.81;100.00;101749.25;5060703;28;20397;-62
2022/07/16 10:30:18;;;;;;;0.32;0.10;;;;;;;22.95;100.00;101749.75;5060083;28;20040;-63
2022/07/16 10:33:02;;;;;;;0.32;0.17;;;;;;;23.03;100.00;101750.22;5055687;28;20092;-68
2022/07/16 10:35:45;;;;;;;1.90;0.32;;;;;;;23.26;100.00;101743.84;5037530;28;20441;-61
2022/07/16 10:38:21;;;;;;;0.95;0.45;;;;;;;23.47;100.00;101738.78;5058642;28;20041;-63
2022/07/16 10:41:05;;;;;;;0.80;0.10;;;;;;;23.71;99.21;101745.63;5038079;28;20033;-59
2022/07/16 10:43:31;;;;;;;3.50;1.63;;;;;;;23.91;98.14;101744.31;5059944;28;20508;-66
2022/07/16 10:45:58;;;;;;;1.35;0.30;;;;;;;23.84;96.88;101738.25;5044326;28;20028;-66
2022/07/16 10:48:25;;;;;;;0.43;0.13;;;;;;;23.90;95.16;101742.66;5053414;28;20033;-60
2022/07/16 10:51:20;;;;;;;0.20;0.00;;;;;;;23.89;90.37;101739.16;5058198;28;20024;-67
2022/07/16 10:53:58;;;;;;;0.20;0.10;;;;;;;23.66;91.18;101753.69;5056784;28;20033;-68
2022/07/16 10:56:32;;;;;;;1.10;0.10;;;;;;;23.58;87.32;101751.38;5054432;28;20037;-69
2022/07/16 10:58:58;;;;;;;1.55;0.08;;;;;;;23.62;92.54;101746.28;5046319;28;20031;-63
2022/07/16 11:01:24;;;;;;;0.75;0.15;;;;;;;24.23;92.22;101743.66;5055841;28;20548;-61
2022/07/16 11:03:51;;;;;;;0.00;0.00;;;;;;;24.64;89.96;101741.47;5060375;28;20064;-48
2022/07/16 11:06:20;;;;;;;1.15;0.22;;;;;;;24.83;87.03;101736.50;5048301;28;20040;-66
2022/07/16 11:08:46;;;;;;;0.47;0.35;;;;;;;24.89;86.05;101741.72;5050148;28;20086;-65
2022/07/16 11:11:12;;;;;;;2.08;0.28;;;;;;;24.60;84.08;101743.84;5047393;28;20483;-69
2022/07/16 11:13:37;;;;;;;0.82;0.10;;;;;;;24.85;86.00;101739.78;5055944;28;20056;-58
2022/07/16 11:16:09;;;;;;;1.17;0.00;;;;;;;25.06;83.73;101740.78;5048745;28;20118;-71
2022/07/16 11:18:36;;;;;;;1.23;0.08;;;;;;;25.22;83.49;101742.56;5049377;28;20032;-65
2022/07/16 11:21:08;;;;;;;0.20;0.17;;;;;;;25.29;79.41;101735.03;5048198;28;20029;-44
2022/07/16 11:23:50;;;;;;;0.20;0.10;;;;;;;25.39;79.68;101737.00;5047479;28;20037;-65
2022/07/16 11:26:16;;;;;;;0.47;0.08;;;;;;;25.21;77.99;101727.38;5044343;28;20032;-64
2022/07/16 11:28:54;;;;;;;0.63;0.00;;;;;;;24.66;75.38;101739.31;5055195;28;20369;-66
2022/07/16 11:31:33;;;;;;;2.22;0.03;;;;;;;24.29;77.68;101734.50;5065265;28;20024;-58
2022/07/16 11:34:04;;;;;;;0.45;0.03;;;;;;;24.69;79.29;101727.94;5060650;28;20032;-69